Teneimaru No.44 — JD4155 — position and weather

sailwx.info

Track history (hours):
 
Tides and Currents Weather Stations Pressure Air Temp Water Temp Dewpoint Dewpoint Depression Visibility Wind Speed Wind Dir Waves Ship Positions

Teneimaru No.44

Last reported at 2017-Nov-20 00:20 UTC. Time now 2017-Nov-22 01:30 UTC.
Position N 34°34' E 135°27'.

Length 70 m; draft 3 m.

Type: Cargo ship. MMSI: 431009147.

Date/timePositionNaut miles runAvg speedWind from/ knotsBaromVisibWave heightAir tempDewpointWater temp
2017-Nov-20 00:20N 34°34' E 135°27'0 0.8
2017-Nov-19 23:58N 34°35' E 135°27'3 5.7
2017-Nov-19 23:30N 34°36' E 135°24'5 8.6
2017-Nov-19 22:59N 34°31' E 135°23'1 0.3
2017-Nov-19 20:30N 34°30' E 135°23'0 0.0
2017-Nov-19 20:00N 34°30' E 135°23'0 0.0
2017-Nov-19 19:30N 34°30' E 135°23'0 0.0
2017-Nov-19 19:00N 34°30' E 135°23'0 0.0
2017-Nov-19 18:30N 34°30' E 135°23'0 0.0
2017-Nov-19 18:00N 34°30' E 135°23'0 0.0
2017-Nov-19 17:30N 34°30' E 135°23'0 0.0
2017-Nov-19 17:00N 34°30' E 135°23'0 0.0
2017-Nov-19 16:30N 34°30' E 135°23'0 0.0
2017-Nov-19 16:00N 34°30' E 135°23'0 0.0
2017-Nov-19 15:30N 34°30' E 135°23'0 0.0
2017-Nov-19 15:00N 34°30' E 135°23'0 0.0
2017-Nov-19 14:30N 34°30' E 135°23'0 0.0
2017-Nov-19 14:00N 34°30' E 135°23'0 0.0
2017-Nov-19 13:30N 34°30' E 135°23'0 0.0
2017-Nov-19 13:00N 34°30' E 135°23'0 0.0
2017-Nov-19 12:30N 34°30' E 135°23'0 0.0
2017-Nov-19 11:57N 34°30' E 135°23'0 0.0
2017-Nov-19 11:15N 34°30' E 135°23'0 0.0
2017-Nov-19 10:12N 34°30' E 135°23'0 2.0
2017-Nov-19 10:00N 34°31' E 135°23'4 9.0
2017-Nov-19 09:30N 34°33' E 135°19'510.6
2017-Nov-19 09:00N 34°34' E 135°12'611.3
2017-Nov-19 08:30N 34°35' E 135°06'  
2017-Nov-17 03:06N 34°40' E 134°45'210.6
2017-Nov-17 02:53N 34°41' E 134°47'1 0.2
2017-Nov-16 21:34N 34°41' E 134°49'  
Track history (hours):
 
Tides and Currents Weather Stations Pressure Air Temp Water Temp Dewpoint Dewpoint Depression Visibility Wind Speed Wind Dir Waves Ship Positions

Teneimaru No.44

Last reported at 2017-Nov-20 00:20 UTC. Time now 2017-Nov-22 01:30 UTC.
Position N 34°34' E 135°27'.

Length 70 m; draft 3 m.

Type: Cargo ship. MMSI: 431009147.

Date/timePositionNaut miles runAvg speedWind from/ knotsBaromVisibWave heightAir tempDewpointWater temp
2017-Nov-20 00:20N 34°34' E 135°27'0 0.8
2017-Nov-19 23:58N 34°35' E 135°27'3 5.7
2017-Nov-19 23:30N 34°36' E 135°24'5 8.6
2017-Nov-19 22:59N 34°31' E 135°23'1 0.3
2017-Nov-19 20:30N 34°30' E 135°23'0 0.0
2017-Nov-19 20:00N 34°30' E 135°23'0 0.0
2017-Nov-19 19:30N 34°30' E 135°23'0 0.0
2017-Nov-19 19:00N 34°30' E 135°23'0 0.0
2017-Nov-19 18:30N 34°30' E 135°23'0 0.0
2017-Nov-19 18:00N 34°30' E 135°23'0 0.0
2017-Nov-19 17:30N 34°30' E 135°23'0 0.0
2017-Nov-19 17:00N 34°30' E 135°23'0 0.0
2017-Nov-19 16:30N 34°30' E 135°23'0 0.0
2017-Nov-19 16:00N 34°30' E 135°23'0 0.0
2017-Nov-19 15:30N 34°30' E 135°23'0 0.0
2017-Nov-19 15:00N 34°30' E 135°23'0 0.0
2017-Nov-19 14:30N 34°30' E 135°23'0 0.0
2017-Nov-19 14:00N 34°30' E 135°23'0 0.0
2017-Nov-19 13:30N 34°30' E 135°23'0 0.0
2017-Nov-19 13:00N 34°30' E 135°23'0 0.0
2017-Nov-19 12:30N 34°30' E 135°23'0 0.0
2017-Nov-19 11:57N 34°30' E 135°23'0 0.0
2017-Nov-19 11:15N 34°30' E 135°23'0 0.0
2017-Nov-19 10:12N 34°30' E 135°23'0 2.0
2017-Nov-19 10:00N 34°31' E 135°23'4 9.0
2017-Nov-19 09:30N 34°33' E 135°19'510.6
2017-Nov-19 09:00N 34°34' E 135°12'611.3
2017-Nov-19 08:30N 34°35' E 135°06'  
2017-Nov-17 03:06N 34°40' E 134°45'210.6
2017-Nov-17 02:53N 34°41' E 134°47'1 0.2
2017-Nov-16 21:34N 34°41' E 134°49'  

Dump ship's entire track history